sensor_id;sensor_type;location;lat;lon;timestamp;temperature;humidity
26621;DHT22;14253;44.840;10.444;2024-01-27T00:01:23;2.20;99.90
26621;DHT22;14253;44.840;10.444;2024-01-27T00:03:48;2.20;99.90
26621;DHT22;14253;44.840;10.444;2024-01-27T00:06:16;2.20;99.90
26621;DHT22;14253;44.840;10.444;2024-01-27T00:08:42;2.20;99.90
26621;DHT22;14253;44.840;10.444;2024-01-27T00:11:07;2.20;99.90
26621;DHT22;14253;44.840;10.444;2024-01-27T00:13:33;2.20;99.90
26621;DHT22;14253;44.840;10.444;2024-01-27T00:15:59;2.30;99.90
26621;DHT22;14253;44.840;10.444;2024-01-27T00:18:25;2.30;99.90
26621;DHT22;14253;44.840;10.444;2024-01-27T00:20:51;2.20;99.90
26621;DHT22;14253;44.840;10.444;2024-01-27T00:23:17;2.10;99.90
26621;DHT22;14253;44.840;10.444;2024-01-27T00:25:43;2.00;99.90
26621;DHT22;14253;44.840;10.444;2024-01-27T00:28:09;2.00;99.90
26621;DHT22;14253;44.840;10.444;2024-01-27T00:30:35;2.00;99.90
26621;DHT22;14253;44.840;10.444;2024-01-27T00:33:01;2.00;99.90
26621;DHT22;14253;44.840;10.444;2024-01-27T00:35:27;2.10;99.90
26621;DHT22;14253;44.840;10.444;2024-01-27T00:37:53;2.00;99.90
26621;DHT22;14253;44.840;10.444;2024-01-27T00:40:19;2.10;99.90
26621;DHT22;14253;44.840;10.444;2024-01-27T00:42:45;2.10;99.90
26621;DHT22;14253;44.840;10.444;2024-01-27T00:45:12;2.10;99.90
26621;DHT22;14253;44.840;10.444;2024-01-27T00:47:38;2.00;99.90
26621;DHT22;14253;44.840;10.444;2024-01-27T00:50:04;2.00;99.90
26621;DHT22;14253;44.840;10.444;2024-01-27T00:52:31;2.00;99.90
26621;DHT22;14253;44.840;10.444;2024-01-27T00:54:57;2.00;99.90
26621;DHT22;14253;44.840;10.444;2024-01-27T00:57:23;2.00;99.90
26621;DHT22;14253;44.840;10.444;2024-01-27T00:59:49;1.90;99.90
26621;DHT22;14253;44.840;10.444;2024-01-27T01:02:15;1.90;99.90
26621;DHT22;14253;44.840;10.444;2024-01-27T01:04:41;1.90;99.90
26621;DHT22;14253;44.840;10.444;2024-01-27T01:07:08;1.80;99.90
26621;DHT22;14253;44.840;10.444;2024-01-27T01:09:34;1.80;99.90
26621;DHT22;14253;44.840;10.444;2024-01-27T01:12:00;1.70;99.90
26621;DHT22;14253;44.840;10.444;2024-01-27T01:14:25;1.70;99.90
26621;DHT22;14253;44.840;10.444;2024-01-27T01:16:51;1.60;99.90
26621;DHT22;14253;44.840;10.444;2024-01-27T01:19:17;1.60;99.90
26621;DHT22;14253;44.840;10.444;2024-01-27T01:21:43;1.50;99.90
26621;DHT22;14253;44.840;10.444;2024-01-27T01:24:09;1.40;99.90
26621;DHT22;14253;44.840;10.444;2024-01-27T01:26:35;1.40;99.90
26621;DHT22;14253;44.840;10.444;2024-01-27T01:29:01;1.40;99.90
26621;DHT22;14253;44.840;10.444;2024-01-27T01:31:27;1.40;99.90
26621;DHT22;14253;44.840;10.444;2024-01-27T01:33:53;1.50;99.90
26621;DHT22;14253;44.840;10.444;2024-01-27T01:36:19;1.50;99.90
26621;DHT22;14253;44.840;10.444;2024-01-27T01:38:45;1.40;99.90
26621;DHT22;14253;44.840;10.444;2024-01-27T01:41:11;1.40;99.90
26621;DHT22;14253;44.840;10.444;2024-01-27T01:43:37;1.50;99.90
26621;DHT22;14253;44.840;10.444;2024-01-27T01:46:03;1.40;99.90
26621;DHT22;14253;44.840;10.444;2024-01-27T01:48:30;1.40;99.90
26621;DHT22;14253;44.840;10.444;2024-01-27T01:50:56;1.40;99.90
26621;DHT22;14253;44.840;10.444;2024-01-27T01:53:22;1.40;99.90
26621;DHT22;14253;44.840;10.444;2024-01-27T01:55:48;1.30;99.90
26621;DHT22;14253;44.840;10.444;2024-01-27T01:58:16;1.40;99.90
26621;DHT22;14253;44.840;10.444;2024-01-27T02:00:42;1.30;99.90
26621;DHT22;14253;44.840;10.444;2024-01-27T02:03:13;1.20;99.90
26621;DHT22;14253;44.840;10.444;2024-01-27T02:05:39;1.10;99.90
26621;DHT22;14253;44.840;10.444;2024-01-27T02:08:06;1.10;99.90
26621;DHT22;14253;44.840;10.444;2024-01-27T02:10:32;1.20;99.90
26621;DHT22;14253;44.840;10.444;2024-01-27T02:13:22;1.20;99.90
26621;DHT22;14253;44.840;10.444;2024-01-27T02:15:49;1.30;99.90
26621;DHT22;14253;44.840;10.444;2024-01-27T02:18:15;1.30;99.90
26621;DHT22;14253;44.840;10.444;2024-01-27T02:20:42;1.20;99.90
26621;DHT22;14253;44.840;10.444;2024-01-27T02:23:08;1.10;99.90
26621;DHT22;14253;44.840;10.444;2024-01-27T02:25:35;1.10;99.90
26621;DHT22;14253;44.840;10.444;2024-01-27T02:28:01;1.20;99.90
26621;DHT22;14253;44.840;10.444;2024-01-27T02:30:30;1.10;99.90
26621;DHT22;14253;44.840;10.444;2024-01-27T02:32:57;1.10;99.90
26621;DHT22;14253;44.840;10.444;2024-01-27T02:35:24;1.10;99.90
26621;DHT22;14253;44.840;10.444;2024-01-27T02:37:50;0.90;99.90
26621;DHT22;14253;44.840;10.444;2024-01-27T02:40:16;0.90;99.90
26621;DHT22;14253;44.840;10.444;2024-01-27T02:42:42;0.80;99.90
26621;DHT22;14253;44.840;10.444;2024-01-27T02:45:10;0.90;99.90
26621;DHT22;14253;44.840;10.444;2024-01-27T02:47:37;0.80;99.90
26621;DHT22;14253;44.840;10.444;2024-01-27T02:50:04;0.80;99.90
26621;DHT22;14253;44.840;10.444;2024-01-27T02:52:32;0.70;99.90
26621;DHT22;14253;44.840;10.444;2024-01-27T02:54:58;0.70;99.90
26621;DHT22;14253;44.840;10.444;2024-01-27T02:57:24;0.80;99.90
26621;DHT22;14253;44.840;10.444;2024-01-27T02:59:50;0.80;99.90
26621;DHT22;14253;44.840;10.444;2024-01-27T03:02:16;0.80;99.90
26621;DHT22;14253;44.840;10.444;2024-01-27T03:04:42;0.60;99.90
26621;DHT22;14253;44.840;10.444;2024-01-27T03:07:08;0.50;99.90
26621;DHT22;14253;44.840;10.444;2024-01-27T03:09:34;0.50;99.90
26621;DHT22;14253;44.840;10.444;2024-01-27T03:12:00;0.50;99.90
26621;DHT22;14253;44.840;10.444;2024-01-27T03:14:26;0.50;99.90
26621;DHT22;14253;44.840;10.444;2024-01-27T03:16:52;0.60;99.90
26621;DHT22;14253;44.840;10.444;2024-01-27T03:19:18;0.50;99.90
26621;DHT22;14253;44.840;10.444;2024-01-27T03:21:45;0.50;99.90
26621;DHT22;14253;44.840;10.444;2024-01-27T03:24:11;0.40;99.90
26621;DHT22;14253;44.840;10.444;2024-01-27T03:26:37;0.30;99.90
26621;DHT22;14253;44.840;10.444;2024-01-27T03:29:03;0.30;99.90
26621;DHT22;14253;44.840;10.444;2024-01-27T03:31:33;0.20;99.90
26621;DHT22;14253;44.840;10.444;2024-01-27T03:34:00;0.20;99.90
26621;DHT22;14253;44.840;10.444;2024-01-27T03:36:27;0.10;99.90
26621;DHT22;14253;44.840;10.444;2024-01-27T03:38:53;0.20;99.90
26621;DHT22;14253;44.840;10.444;2024-01-27T03:41:20;0.20;99.90
26621;DHT22;14253;44.840;10.444;2024-01-27T03:43:45;0.30;99.90
26621;DHT22;14253;44.840;10.444;2024-01-27T03:46:11;0.30;99.90
26621;DHT22;14253;44.840;10.444;2024-01-27T03:48:37;0.20;99.90
26621;DHT22;14253;44.840;10.444;2024-01-27T03:51:03;0.20;99.90
26621;DHT22;14253;44.840;10.444;2024-01-27T03:53:29;0.20;99.90
26621;DHT22;14253;44.840;10.444;2024-01-27T03:55:56;0.30;99.90
26621;DHT22;14253;44.840;10.444;2024-01-27T03:58:24;0.30;99.90
26621;DHT22;14253;44.840;10.444;2024-01-27T04:00:51;0.20;99.90
26621;DHT22;14253;44.840;10.444;2024-01-27T04:03:17;0.20;99.90
26621;DHT22;14253;44.840;10.444;2024-01-27T04:05:43;0.20;99.90
26621;DHT22;14253;44.840;10.444;2024-01-27T04:08:09;0.20;99.90
26621;DHT22;14253;44.840;10.444;2024-01-27T04:10:36;0.20;99.90
26621;DHT22;14253;44.840;10.444;2024-01-27T04:13:02;0.30;99.90
26621;DHT22;14253;44.840;10.444;2024-01-27T04:15:28;0.30;99.90
26621;DHT22;14253;44.840;10.444;2024-01-27T04:17:55;0.30;99.90
26621;DHT22;14253;44.840;10.444;2024-01-27T04:20:21;0.20;99.90
26621;DHT22;14253;44.840;10.444;2024-01-27T04:22:47;0.10;99.90
26621;DHT22;14253;44.840;10.444;2024-01-27T04:25:13;0.10;99.90
26621;DHT22;14253;44.840;10.444;2024-01-27T04:27:39;0.10;99.90
26621;DHT22;14253;44.840;10.444;2024-01-27T04:30:07;0.10;99.90
26621;DHT22;14253;44.840;10.444;2024-01-27T04:32:33;0.00;99.90
26621;DHT22;14253;44.840;10.444;2024-01-27T04:34:59;0.10;99.90
26621;DHT22;14253;44.840;10.444;2024-01-27T04:37:24;0.00;99.90
26621;DHT22;14253;44.840;10.444;2024-01-27T04:39:51;-0.10;99.90
26621;DHT22;14253;44.840;10.444;2024-01-27T04:42:17;-0.10;99.90
26621;DHT22;14253;44.840;10.444;2024-01-27T04:44:43;-0.20;99.90
26621;DHT22;14253;44.840;10.444;2024-01-27T04:47:09;-0.20;99.90
26621;DHT22;14253;44.840;10.444;2024-01-27T04:49:35;-0.20;99.90
26621;DHT22;14253;44.840;10.444;2024-01-27T04:52:01;-0.20;99.90
26621;DHT22;14253;44.840;10.444;2024-01-27T04:54:27;-0.20;99.90
26621;DHT22;14253;44.840;10.444;2024-01-27T04:56:53;-0.10;99.90
26621;DHT22;14253;44.840;10.444;2024-01-27T04:59:19;-0.30;99.90
26621;DHT22;14253;44.840;10.444;2024-01-27T05:01:45;-0.30;99.90
26621;DHT22;14253;44.840;10.444;2024-01-27T05:04:12;-0.30;99.90
26621;DHT22;14253;44.840;10.444;2024-01-27T05:06:38;-0.40;99.90
26621;DHT22;14253;44.840;10.444;2024-01-27T05:09:05;-0.40;99.90
26621;DHT22;14253;44.840;10.444;2024-01-27T05:11:33;-0.40;99.90
26621;DHT22;14253;44.840;10.444;2024-01-27T05:14:00;-0.30;99.90
26621;DHT22;14253;44.840;10.444;2024-01-27T05:16:27;-0.30;99.90
26621;DHT22;14253;44.840;10.444;2024-01-27T05:18:53;-0.20;99.90
26621;DHT22;14253;44.840;10.444;2024-01-27T05:21:19;-0.10;99.90
26621;DHT22;14253;44.840;10.444;2024-01-27T05:23:45;0.00;99.90
26621;DHT22;14253;44.840;10.444;2024-01-27T05:26:11;0.20;99.90
26621;DHT22;14253;44.840;10.444;2024-01-27T05:28:38;0.20;99.90
26621;DHT22;14253;44.840;10.444;2024-01-27T05:31:08;0.20;99.90
26621;DHT22;14253;44.840;10.444;2024-01-27T05:33:35;0.20;99.90
26621;DHT22;14253;44.840;10.444;2024-01-27T05:36:01;0.20;99.90
26621;DHT22;14253;44.840;10.444;2024-01-27T05:38:27;0.20;99.90
26621;DHT22;14253;44.840;10.444;2024-01-27T05:40:55;0.20;99.90
26621;DHT22;14253;44.840;10.444;2024-01-27T05:43:21;0.20;99.90
26621;DHT22;14253;44.840;10.444;2024-01-27T05:45:48;0.20;99.90
26621;DHT22;14253;44.840;10.444;2024-01-27T05:48:14;0.20;99.90
26621;DHT22;14253;44.840;10.444;2024-01-27T05:50:42;0.10;99.90
26621;DHT22;14253;44.840;10.444;2024-01-27T05:53:08;0.10;99.90
26621;DHT22;14253;44.840;10.444;2024-01-27T05:55:34;0.00;99.90
26621;DHT22;14253;44.840;10.444;2024-01-27T05:58:00;0.00;99.90
26621;DHT22;14253;44.840;10.444;2024-01-27T06:00:26;0.00;99.90
26621;DHT22;14253;44.840;10.444;2024-01-27T06:02:52;0.00;99.90
26621;DHT22;14253;44.840;10.444;2024-01-27T06:05:18;0.00;99.90
26621;DHT22;14253;44.840;10.444;2024-01-27T06:07:45;0.00;99.90
26621;DHT22;14253;44.840;10.444;2024-01-27T06:10:12;0.00;99.90
26621;DHT22;14253;44.840;10.444;2024-01-27T06:12:39;0.10;99.90
26621;DHT22;14253;44.840;10.444;2024-01-27T06:15:06;0.10;99.90
26621;DHT22;14253;44.840;10.444;2024-01-27T06:17:35;0.10;99.90
26621;DHT22;14253;44.840;10.444;2024-01-27T06:20:01;0.10;99.90
26621;DHT22;14253;44.840;10.444;2024-01-27T06:22:27;0.10;99.90
26621;DHT22;14253;44.840;10.444;2024-01-27T06:24:53;0.10;99.90
26621;DHT22;14253;44.840;10.444;2024-01-27T06:27:19;0.00;99.90
26621;DHT22;14253;44.840;10.444;2024-01-27T06:29:45;0.00;99.90
26621;DHT22;14253;44.840;10.444;2024-01-27T06:32:11;0.00;99.90
26621;DHT22;14253;44.840;10.444;2024-01-27T06:34:37;0.00;99.90
26621;DHT22;14253;44.840;10.444;2024-01-27T06:37:03;0.00;99.90
26621;DHT22;14253;44.840;10.444;2024-01-27T06:39:30;0.00;99.90
26621;DHT22;14253;44.840;10.444;2024-01-27T06:41:56;0.00;99.90
26621;DHT22;14253;44.840;10.444;2024-01-27T06:44:22;0.00;99.90
26621;DHT22;14253;44.840;10.444;2024-01-27T06:46:48;0.00;99.90
26621;DHT22;14253;44.840;10.444;2024-01-27T06:49:17;0.00;99.90
26621;DHT22;14253;44.840;10.444;2024-01-27T06:51:44;0.00;99.90
26621;DHT22;14253;44.840;10.444;2024-01-27T06:54:10;0.00;99.90
26621;DHT22;14253;44.840;10.444;2024-01-27T06:56:39;0.00;99.90
26621;DHT22;14253;44.840;10.444;2024-01-27T06:59:04;-0.10;99.90
26621;DHT22;14253;44.840;10.444;2024-01-27T07:01:30;0.00;99.90
26621;DHT22;14253;44.840;10.444;2024-01-27T07:03:56;-0.10;99.90
26621;DHT22;14253;44.840;10.444;2024-01-27T07:06:22;-0.10;99.90
26621;DHT22;14253;44.840;10.444;2024-01-27T07:08:48;-0.10;99.90
26621;DHT22;14253;44.840;10.444;2024-01-27T07:11:14;-0.10;99.90
26621;DHT22;14253;44.840;10.444;2024-01-27T07:13:41;-0.10;99.90
26621;DHT22;14253;44.840;10.444;2024-01-27T07:16:07;-0.10;99.90
26621;DHT22;14253;44.840;10.444;2024-01-27T07:18:33;-0.10;99.90
26621;DHT22;14253;44.840;10.444;2024-01-27T07:21:01;0.00;99.90
26621;DHT22;14253;44.840;10.444;2024-01-27T07:23:28;0.10;99.90
26621;DHT22;14253;44.840;10.444;2024-01-27T07:25:54;0.10;99.90
26621;DHT22;14253;44.840;10.444;2024-01-27T07:28:20;0.20;99.90
26621;DHT22;14253;44.840;10.444;2024-01-27T07:30:46;0.20;99.90
26621;DHT22;14253;44.840;10.444;2024-01-27T07:33:12;0.30;99.90
26621;DHT22;14253;44.840;10.444;2024-01-27T07:35:38;0.30;99.90
26621;DHT22;14253;44.840;10.444;2024-01-27T07:38:04;0.30;99.90
26621;DHT22;14253;44.840;10.444;2024-01-27T07:40:30;0.30;99.90
26621;DHT22;14253;44.840;10.444;2024-01-27T07:42:55;0.30;99.90
26621;DHT22;14253;44.840;10.444;2024-01-27T07:45:21;0.40;99.90
26621;DHT22;14253;44.840;10.444;2024-01-27T07:47:47;0.30;99.90
26621;DHT22;14253;44.840;10.444;2024-01-27T07:50:13;0.30;99.90
26621;DHT22;14253;44.840;10.444;2024-01-27T07:52:39;0.40;99.90
26621;DHT22;14253;44.840;10.444;2024-01-27T07:55:05;0.40;99.90
26621;DHT22;14253;44.840;10.444;2024-01-27T07:57:31;0.40;99.90
26621;DHT22;14253;44.840;10.444;2024-01-27T07:59:58;0.40;99.90
26621;DHT22;14253;44.840;10.444;2024-01-27T08:02:24;0.40;99.90
26621;DHT22;14253;44.840;10.444;2024-01-27T08:04:51;0.50;99.90
26621;DHT22;14253;44.840;10.444;2024-01-27T08:07:17;0.60;99.90
26621;DHT22;14253;44.840;10.444;2024-01-27T08:09:43;0.60;99.90
26621;DHT22;14253;44.840;10.444;2024-01-27T08:12:09;0.60;99.90
26621;DHT22;14253;44.840;10.444;2024-01-27T08:14:35;0.70;99.90
26621;DHT22;14253;44.840;10.444;2024-01-27T08:17:01;0.70;99.90
26621;DHT22;14253;44.840;10.444;2024-01-27T08:19:31;0.70;99.90
26621;DHT22;14253;44.840;10.444;2024-01-27T08:21:57;0.70;99.90
26621;DHT22;14253;44.840;10.444;2024-01-27T08:24:24;0.70;99.90
26621;DHT22;14253;44.840;10.444;2024-01-27T08:26:50;0.70;99.90
26621;DHT22;14253;44.840;10.444;2024-01-27T08:29:16;0.70;99.90
26621;DHT22;14253;44.840;10.444;2024-01-27T08:31:44;0.80;99.90
26621;DHT22;14253;44.840;10.444;2024-01-27T08:34:13;0.80;99.90
26621;DHT22;14253;44.840;10.444;2024-01-27T08:36:39;0.90;99.90
26621;DHT22;14253;44.840;10.444;2024-01-27T08:39:06;0.90;99.90
26621;DHT22;14253;44.840;10.444;2024-01-27T08:41:35;0.90;99.90
26621;DHT22;14253;44.840;10.444;2024-01-27T08:44:01;1.00;99.90
26621;DHT22;14253;44.840;10.444;2024-01-27T08:46:27;1.10;99.90
26621;DHT22;14253;44.840;10.444;2024-01-27T08:48:54;1.10;99.90
26621;DHT22;14253;44.840;10.444;2024-01-27T08:51:20;1.10;99.90
26621;DHT22;14253;44.840;10.444;2024-01-27T08:53:46;1.20;99.90
26621;DHT22;14253;44.840;10.444;2024-01-27T08:56:17;1.20;99.90
26621;DHT22;14253;44.840;10.444;2024-01-27T08:58:44;1.30;99.90
26621;DHT22;14253;44.840;10.444;2024-01-27T09:01:10;1.40;99.90
26621;DHT22;14253;44.840;10.444;2024-01-27T09:03:39;1.40;99.90
26621;DHT22;14253;44.840;10.444;2024-01-27T09:06:06;1.50;99.90
26621;DHT22;14253;44.840;10.444;2024-01-27T09:08:35;1.60;99.90
26621;DHT22;14253;44.840;10.444;2024-01-27T09:11:02;1.70;99.90
26621;DHT22;14253;44.840;10.444;2024-01-27T09:13:28;1.70;99.90
26621;DHT22;14253;44.840;10.444;2024-01-27T09:15:54;1.70;99.90
26621;DHT22;14253;44.840;10.444;2024-01-27T09:18:20;1.80;99.90
26621;DHT22;14253;44.840;10.444;2024-01-27T09:20:46;2.00;99.90
26621;DHT22;14253;44.840;10.444;2024-01-27T09:23:12;2.00;99.90
26621;DHT22;14253;44.840;10.444;2024-01-27T09:25:38;2.20;99.90
26621;DHT22;14253;44.840;10.444;2024-01-27T09:28:05;2.30;99.90
26621;DHT22;14253;44.840;10.444;2024-01-27T09:30:31;2.30;99.90
26621;DHT22;14253;44.840;10.444;2024-01-27T09:32:57;2.30;99.90
26621;DHT22;14253;44.840;10.444;2024-01-27T09:35:23;2.40;99.90
26621;DHT22;14253;44.840;10.444;2024-01-27T09:37:48;2.50;99.90
26621;DHT22;14253;44.840;10.444;2024-01-27T09:40:14;2.60;99.90
26621;DHT22;14253;44.840;10.444;2024-01-27T09:42:51;2.70;99.90
26621;DHT22;14253;44.840;10.444;2024-01-27T09:45:20;2.80;99.90
26621;DHT22;14253;44.840;10.444;2024-01-27T09:47:47;2.90;99.90
26621;DHT22;14253;44.840;10.444;2024-01-27T09:50:14;3.10;99.90
26621;DHT22;14253;44.840;10.444;2024-01-27T09:52:43;3.00;99.90
26621;DHT22;14253;44.840;10.444;2024-01-27T09:55:09;3.10;99.90
26621;DHT22;14253;44.840;10.444;2024-01-27T09:57:38;3.10;99.90
26621;DHT22;14253;44.840;10.444;2024-01-27T10:00:06;3.10;99.90
26621;DHT22;14253;44.840;10.444;2024-01-27T10:02:36;3.20;99.90
26621;DHT22;14253;44.840;10.444;2024-01-27T10:05:02;3.30;99.90
26621;DHT22;14253;44.840;10.444;2024-01-27T10:07:28;3.40;99.90
26621;DHT22;14253;44.840;10.444;2024-01-27T10:09:54;3.60;99.90
26621;DHT22;14253;44.840;10.444;2024-01-27T10:12:21;3.50;99.90
26621;DHT22;14253;44.840;10.444;2024-01-27T10:14:48;3.60;99.90
26621;DHT22;14253;44.840;10.444;2024-01-27T10:17:23;3.60;99.90
26621;DHT22;14253;44.840;10.444;2024-01-27T10:20:05;3.60;99.90
26621;DHT22;14253;44.840;10.444;2024-01-27T10:22:38;3.60;99.90
26621;DHT22;14253;44.840;10.444;2024-01-27T10:25:05;3.70;99.90
26621;DHT22;14253;44.840;10.444;2024-01-27T10:27:31;3.80;99.90
26621;DHT22;14253;44.840;10.444;2024-01-27T10:29:57;3.90;99.90
26621;DHT22;14253;44.840;10.444;2024-01-27T10:32:23;3.90;99.90
26621;DHT22;14253;44.840;10.444;2024-01-27T10:35:01;4.00;99.90
26621;DHT22;14253;44.840;10.444;2024-01-27T10:37:27;4.00;99.90
26621;DHT22;14253;44.840;10.444;2024-01-27T10:40:03;4.10;99.90
26621;DHT22;14253;44.840;10.444;2024-01-27T10:42:29;4.20;99.90
26621;DHT22;14253;44.840;10.444;2024-01-27T10:44:59;4.10;99.90
26621;DHT22;14253;44.840;10.444;2024-01-27T10:47:31;4.20;99.90
26621;DHT22;14253;44.840;10.444;2024-01-27T10:49:58;4.20;99.90
26621;DHT22;14253;44.840;10.444;2024-01-27T10:52:28;4.40;99.90
26621;DHT22;14253;44.840;10.444;2024-01-27T10:55:03;4.40;99.90
26621;DHT22;14253;44.840;10.444;2024-01-27T10:57:33;4.50;99.90
26621;DHT22;14253;44.840;10.444;2024-01-27T11:00:01;4.60;99.90
26621;DHT22;14253;44.840;10.444;2024-01-27T11:02:33;4.70;99.90
26621;DHT22;14253;44.840;10.444;2024-01-27T11:05:02;4.80;99.90
26621;DHT22;14253;44.840;10.444;2024-01-27T11:07:32;4.70;99.90
26621;DHT22;14253;44.840;10.444;2024-01-27T11:09:59;4.60;99.90
26621;DHT22;14253;44.840;10.444;2024-01-27T11:12:25;4.80;99.90
26621;DHT22;14253;44.840;10.444;2024-01-27T11:14:52;4.80;99.90
26621;DHT22;14253;44.840;10.444;2024-01-27T11:17:21;4.90;99.90
26621;DHT22;14253;44.840;10.444;2024-01-27T11:19:47;4.90;99.90
26621;DHT22;14253;44.840;10.444;2024-01-27T11:22:27;5.00;99.90
26621;DHT22;14253;44.840;10.444;2024-01-27T11:25:15;5.10;99.90
26621;DHT22;14253;44.840;10.444;2024-01-27T11:27:42;4.90;99.90
26621;DHT22;14253;44.840;10.444;2024-01-27T11:30:29;5.10;99.90
26621;DHT22;14253;44.840;10.444;2024-01-27T11:32:56;5.10;99.90
26621;DHT22;14253;44.840;10.444;2024-01-27T11:35:23;5.20;99.90
26621;DHT22;14253;44.840;10.444;2024-01-27T11:37:49;5.10;99.90
26621;DHT22;14253;44.840;10.444;2024-01-27T11:40:15;5.20;99.90
26621;DHT22;14253;44.840;10.444;2024-01-27T11:42:42;5.20;99.90
26621;DHT22;14253;44.840;10.444;2024-01-27T11:45:09;5.30;99.90
26621;DHT22;14253;44.840;10.444;2024-01-27T11:47:35;5.40;99.90
26621;DHT22;14253;44.840;10.444;2024-01-27T11:50:01;5.40;99.90
26621;DHT22;14253;44.840;10.444;2024-01-27T11:52:28;5.50;99.90
26621;DHT22;14253;44.840;10.444;2024-01-27T11:55:04;5.70;99.90
26621;DHT22;14253;44.840;10.444;2024-01-27T11:57:30;5.80;99.90
26621;DHT22;14253;44.840;10.444;2024-01-27T11:59:56;5.90;99.90
26621;DHT22;14253;44.840;10.444;2024-01-27T12:02:22;6.00;99.90
26621;DHT22;14253;44.840;10.444;2024-01-27T12:04:48;6.10;99.90
26621;DHT22;14253;44.840;10.444;2024-01-27T12:07:15;6.10;99.90
26621;DHT22;14253;44.840;10.444;2024-01-27T12:09:44;6.00;99.90
26621;DHT22;14253;44.840;10.444;2024-01-27T12:12:12;6.00;99.90
26621;DHT22;14253;44.840;10.444;2024-01-27T12:14:45;6.20;99.90
26621;DHT22;14253;44.840;10.444;2024-01-27T12:17:12;6.30;99.90
26621;DHT22;14253;44.840;10.444;2024-01-27T12:19:39;6.40;99.90
26621;DHT22;14253;44.840;10.444;2024-01-27T12:24:46;6.50;99.90
26621;DHT22;14253;44.840;10.444;2024-01-27T12:27:12;6.50;99.90
26621;DHT22;14253;44.840;10.444;2024-01-27T12:29:41;6.50;99.90
26621;DHT22;14253;44.840;10.444;2024-01-27T12:32:07;6.50;99.90
26621;DHT22;14253;44.840;10.444;2024-01-27T12:34:33;6.50;99.90
26621;DHT22;14253;44.840;10.444;2024-01-27T12:37:04;6.50;99.90
26621;DHT22;14253;44.840;10.444;2024-01-27T12:39:31;6.50;99.90
26621;DHT22;14253;44.840;10.444;2024-01-27T12:41:57;6.60;99.90
26621;DHT22;14253;44.840;10.444;2024-01-27T12:44:23;6.70;99.90
26621;DHT22;14253;44.840;10.444;2024-01-27T12:46:49;6.80;99.90
26621;DHT22;14253;44.840;10.444;2024-01-27T12:49:15;6.80;99.90
26621;DHT22;14253;44.840;10.444;2024-01-27T12:51:41;6.80;99.90
26621;DHT22;14253;44.840;10.444;2024-01-27T12:54:07;6.90;99.90
26621;DHT22;14253;44.840;10.444;2024-01-27T12:56:33;7.10;99.90
26621;DHT22;14253;44.840;10.444;2024-01-27T12:59:00;7.00;99.90
26621;DHT22;14253;44.840;10.444;2024-01-27T13:01:27;7.10;99.90
26621;DHT22;14253;44.840;10.444;2024-01-27T13:03:53;7.10;99.90
26621;DHT22;14253;44.840;10.444;2024-01-27T13:06:19;7.10;99.90
26621;DHT22;14253;44.840;10.444;2024-01-27T13:08:46;7.00;99.90
26621;DHT22;14253;44.840;10.444;2024-01-27T13:11:12;7.10;99.90
26621;DHT22;14253;44.840;10.444;2024-01-27T13:13:40;7.10;99.90
26621;DHT22;14253;44.840;10.444;2024-01-27T13:16:07;7.10;99.90
26621;DHT22;14253;44.840;10.444;2024-01-27T13:18:33;7.00;99.90
26621;DHT22;14253;44.840;10.444;2024-01-27T13:20:58;7.00;99.90
26621;DHT22;14253;44.840;10.444;2024-01-27T13:23:24;7.10;99.90
26621;DHT22;14253;44.840;10.444;2024-01-27T13:25:50;7.10;99.90
26621;DHT22;14253;44.840;10.444;2024-01-27T13:28:17;7.20;99.90
26621;DHT22;14253;44.840;10.444;2024-01-27T13:30:43;7.20;99.90
26621;DHT22;14253;44.840;10.444;2024-01-27T13:33:09;7.20;99.90
26621;DHT22;14253;44.840;10.444;2024-01-27T13:35:35;7.20;99.90
26621;DHT22;14253;44.840;10.444;2024-01-27T13:38:01;7.30;99.90
26621;DHT22;14253;44.840;10.444;2024-01-27T13:40:27;7.20;99.90
26621;DHT22;14253;44.840;10.444;2024-01-27T13:42:53;7.20;99.90
26621;DHT22;14253;44.840;10.444;2024-01-27T13:45:19;7.10;99.90
26621;DHT22;14253;44.840;10.444;2024-01-27T13:47:45;7.10;99.90
26621;DHT22;14253;44.840;10.444;2024-01-27T13:50:13;7.20;99.90
26621;DHT22;14253;44.840;10.444;2024-01-27T13:52:39;7.20;99.90
26621;DHT22;14253;44.840;10.444;2024-01-27T13:55:07;7.10;99.90
26621;DHT22;14253;44.840;10.444;2024-01-27T13:57:32;7.10;99.90
26621;DHT22;14253;44.840;10.444;2024-01-27T13:59:58;7.10;99.90
26621;DHT22;14253;44.840;10.444;2024-01-27T14:02:24;6.90;99.90
26621;DHT22;14253;44.840;10.444;2024-01-27T14:04:51;6.90;99.90
26621;DHT22;14253;44.840;10.444;2024-01-27T14:07:17;7.00;99.90
26621;DHT22;14253;44.840;10.444;2024-01-27T14:09:43;7.10;99.90
26621;DHT22;14253;44.840;10.444;2024-01-27T14:12:10;7.10;99.90
26621;DHT22;14253;44.840;10.444;2024-01-27T14:14:36;7.00;99.90
26621;DHT22;14253;44.840;10.444;2024-01-27T14:17:05;6.90;99.90
26621;DHT22;14253;44.840;10.444;2024-01-27T14:19:31;6.90;99.90
26621;DHT22;14253;44.840;10.444;2024-01-27T14:21:57;7.20;99.90
26621;DHT22;14253;44.840;10.444;2024-01-27T14:24:23;7.30;99.90
26621;DHT22;14253;44.840;10.444;2024-01-27T14:26:49;7.40;99.90
26621;DHT22;14253;44.840;10.444;2024-01-27T14:29:15;7.50;99.90
26621;DHT22;14253;44.840;10.444;2024-01-27T14:31:42;7.60;99.90
26621;DHT22;14253;44.840;10.444;2024-01-27T14:34:08;7.60;99.90
26621;DHT22;14253;44.840;10.444;2024-01-27T14:36:38;7.70;99.90
26621;DHT22;14253;44.840;10.444;2024-01-27T14:39:04;7.70;99.90
26621;DHT22;14253;44.840;10.444;2024-01-27T14:41:30;7.70;99.90
26621;DHT22;14253;44.840;10.444;2024-01-27T14:43:56;7.70;99.90
26621;DHT22;14253;44.840;10.444;2024-01-27T14:46:22;7.70;99.90
26621;DHT22;14253;44.840;10.444;2024-01-27T14:48:48;7.80;99.90
26621;DHT22;14253;44.840;10.444;2024-01-27T14:51:14;7.80;99.90
26621;DHT22;14253;44.840;10.444;2024-01-27T14:53:40;7.90;99.90
26621;DHT22;14253;44.840;10.444;2024-01-27T14:56:07;7.90;99.90
26621;DHT22;14253;44.840;10.444;2024-01-27T14:58:33;7.90;99.90
26621;DHT22;14253;44.840;10.444;2024-01-27T15:00:59;7.90;99.90
26621;DHT22;14253;44.840;10.444;2024-01-27T15:03:25;7.90;99.90
26621;DHT22;14253;44.840;10.444;2024-01-27T15:05:51;7.90;99.90
26621;DHT22;14253;44.840;10.444;2024-01-27T15:08:17;7.80;99.90
26621;DHT22;14253;44.840;10.444;2024-01-27T15:10:44;7.80;99.90
26621;DHT22;14253;44.840;10.444;2024-01-27T15:13:10;7.70;99.90
26621;DHT22;14253;44.840;10.444;2024-01-27T15:15:37;7.60;99.90
26621;DHT22;14253;44.840;10.444;2024-01-27T15:18:04;7.60;99.90
26621;DHT22;14253;44.840;10.444;2024-01-27T15:20:30;7.60;99.90
26621;DHT22;14253;44.840;10.444;2024-01-27T15:22:56;7.50;99.90
26621;DHT22;14253;44.840;10.444;2024-01-27T15:25:22;7.40;99.90
26621;DHT22;14253;44.840;10.444;2024-01-27T15:27:49;7.40;99.90
26621;DHT22;14253;44.840;10.444;2024-01-27T15:30:17;7.40;99.90